Time;durP1;ratioP1;P1;durP2;ratioP2;P2;SDS_P1;SDS_P2;PMS_P1;PMS_P2;Temp;Humidity;BMP_temperature;BMP_pressure;BME280_temperature;BME280_humidity;BME280_pressure;Samples;Min_cycle;Max_cycle;Signal;HPM_P1;HPM_P2
2022/05/21 00:01:51;;;;;;;2.30;1.50;;;24.00;99.90;;;;;;5025244;28;20944;-77
2022/05/21 00:04:19;;;;;;;2.13;2.03;;;24.00;99.90;;;;;;5023332;28;20536;-77
2022/05/21 00:06:48;;;;;;;3.20;1.30;;;24.00;99.90;;;;;;5017338;28;20542;-76
2022/05/21 00:09:18;;;;;;;1.37;1.27;;;24.00;99.90;;;;;;5024460;28;20476;-77
2022/05/21 00:11:47;;;;;;;2.93;2.13;;;24.00;99.90;;;;;;5024896;28;20466;-77
2022/05/21 00:14:15;;;;;;;1.60;1.37;;;24.00;99.90;;;;;;5017271;28;20551;-77
2022/05/21 00:16:43;;;;;;;1.70;1.33;;;23.90;99.90;;;;;;5017811;28;20464;-78
2022/05/21 00:19:13;;;;;;;1.43;1.33;;;23.80;99.90;;;;;;5021196;28;20459;-77
2022/05/21 00:21:42;;;;;;;2.17;1.20;;;23.80;99.90;;;;;;5020275;28;20460;-78
2022/05/21 00:24:10;;;;;;;1.20;1.10;;;23.80;99.90;;;;;;5026840;28;20543;-77
2022/05/21 00:26:38;;;;;;;1.30;1.20;;;23.70;99.90;;;;;;5023193;28;21047;-77
2022/05/21 00:29:07;;;;;;;1.30;1.20;;;23.70;99.90;;;;;;5025631;28;20475;-77
2022/05/21 00:31:36;;;;;;;1.67;1.30;;;23.70;99.90;;;;;;5021157;28;20460;-77
2022/05/21 00:34:04;;;;;;;1.73;1.63;;;23.60;99.90;;;;;;5025031;28;20467;-77
2022/05/21 00:36:33;;;;;;;1.00;0.90;;;23.60;99.90;;;;;;5024070;28;20509;-77
2022/05/21 00:39:02;;;;;;;1.17;1.10;;;23.60;99.90;;;;;;5026558;28;20464;-77
2022/05/21 00:41:31;;;;;;;1.70;1.00;;;23.50;99.90;;;;;;5024758;28;20466;-77
2022/05/21 00:44:02;;;;;;;2.00;1.23;;;23.50;99.90;;;;;;5022557;28;20464;-77
2022/05/21 00:46:32;;;;;;;1.80;1.00;;;23.50;99.90;;;;;;5027828;28;20575;-78
2022/05/21 00:49:07;;;;;;;1.50;0.90;;;23.40;99.90;;;;;;5020886;28;21105;-78
2022/05/21 00:51:41;;;;;;;1.57;0.93;;;23.50;99.90;;;;;;5025797;28;20543;-78
2022/05/21 00:54:10;;;;;;;1.10;0.90;;;23.40;99.90;;;;;;5020981;28;20452;-77
2022/05/21 00:56:45;;;;;;;1.00;0.90;;;23.30;99.90;;;;;;5025366;28;20475;-77
2022/05/21 01:02:04;;;;;;;1.37;0.87;;;23.40;99.90;;;;;;5025214;28;20452;-78
2022/05/21 01:04:34;;;;;;;1.80;1.00;;;23.40;99.90;;;;;;5018471;28;20851;-77
2022/05/21 01:07:06;;;;;;;1.20;1.10;;;23.30;99.90;;;;;;5023268;28;20484;-77
2022/05/21 01:09:39;;;;;;;0.97;0.90;;;23.30;99.90;;;;;;5018721;28;20484;-77
2022/05/21 01:12:09;;;;;;;0.93;0.90;;;23.20;99.90;;;;;;5021973;28;20827;-77
2022/05/21 01:14:38;;;;;;;1.10;1.00;;;23.10;99.90;;;;;;5021403;28;20463;-77
2022/05/21 01:17:08;;;;;;;1.50;1.00;;;23.10;99.90;;;;;;5025466;28;20472;-77
2022/05/21 01:19:55;;;;;;;0.90;0.90;;;23.10;99.90;;;;;;5022043;28;20484;-77
2022/05/21 01:22:27;;;;;;;2.90;0.93;;;23.00;99.90;;;;;;5023150;28;20452;-77
2022/05/21 01:24:55;;;;;;;1.63;0.90;;;23.00;99.90;;;;;;5020639;28;20466;-77
2022/05/21 01:27:27;;;;;;;0.83;0.80;;;23.00;99.90;;;;;;5024081;28;20468;-77
2022/05/21 01:29:57;;;;;;;1.33;0.70;;;22.90;99.90;;;;;;5015629;28;20481;-77
2022/05/21 01:32:25;;;;;;;1.10;1.00;;;22.90;99.90;;;;;;5023306;28;20551;-77
2022/05/21 01:34:53;;;;;;;1.10;1.00;;;22.80;99.90;;;;;;5016377;28;20469;-77
2022/05/21 01:37:22;;;;;;;1.17;0.80;;;22.80;99.90;;;;;;5024944;28;20476;-76
2022/05/21 01:39:51;;;;;;;3.83;1.20;;;22.70;99.90;;;;;;5022136;28;22395;-77
2022/05/21 01:42:20;;;;;;;1.10;1.00;;;22.70;99.90;;;;;;5022434;28;20466;-76
2022/05/21 01:44:52;;;;;;;0.90;0.90;;;22.60;99.90;;;;;;5018206;28;20454;-77
2022/05/21 01:47:22;;;;;;;1.13;1.03;;;22.60;99.90;;;;;;5016893;28;20574;-77
2022/05/21 01:49:51;;;;;;;1.77;0.90;;;22.60;99.90;;;;;;5013458;28;20471;-77
2022/05/21 01:52:20;;;;;;;0.80;0.80;;;22.60;99.90;;;;;;5020470;28;20575;-77
2022/05/21 01:54:48;;;;;;;0.80;0.80;;;22.50;99.90;;;;;;5023402;28;20812;-76
2022/05/21 01:57:17;;;;;;;1.73;1.10;;;22.50;99.90;;;;;;5015093;28;20476;-77
2022/05/21 01:59:46;;;;;;;0.83;0.77;;;22.30;99.90;;;;;;5018037;28;20460;-76
2022/05/21 02:02:15;;;;;;;0.80;0.80;;;22.40;99.90;;;;;;5024894;28;20460;-76
2022/05/21 02:04:43;;;;;;;1.30;0.93;;;22.30;99.90;;;;;;5019105;28;20455;-77
2022/05/21 02:07:12;;;;;;;1.33;0.90;;;22.30;99.90;;;;;;5012266;28;20576;-77
2022/05/21 02:09:40;;;;;;;0.90;0.80;;;22.20;99.90;;;;;;5022008;28;20517;-77
2022/05/21 02:12:14;;;;;;;1.80;0.90;;;22.20;99.90;;;;;;5015665;28;21016;-77
2022/05/21 02:14:44;;;;;;;0.67;0.67;;;22.20;99.90;;;;;;5019818;28;20456;-77
2022/05/21 02:17:12;;;;;;;0.83;0.83;;;22.20;99.90;;;;;;5011406;28;20552;-77
2022/05/21 02:19:40;;;;;;;0.87;0.80;;;22.10;99.90;;;;;;5019407;28;20463;-76
2022/05/21 02:22:09;;;;;;;2.60;0.90;;;22.00;99.90;;;;;;5010636;28;20437;-76
2022/05/21 02:24:37;;;;;;;2.10;0.80;;;22.00;99.90;;;;;;5020514;28;20540;-76
2022/05/21 02:27:09;;;;;;;0.90;0.90;;;22.00;99.90;;;;;;5014126;28;21034;-80
2022/05/21 02:29:38;;;;;;;0.70;0.70;;;22.00;99.90;;;;;;5019770;28;20492;-81
2022/05/21 02:32:11;;;;;;;0.70;0.63;;;22.00;99.90;;;;;;5019718;28;20554;-81
2022/05/21 02:34:39;;;;;;;1.03;0.80;;;22.00;99.90;;;;;;5024267;28;20448;-81
2022/05/21 02:39:53;;;;;;;0.70;0.70;;;21.80;99.90;;;;;;5012984;28;20598;-81
2022/05/21 02:45:08;;;;;;;0.70;0.70;;;21.80;99.90;;;;;;5014066;28;20462;-81
2022/05/21 02:47:38;;;;;;;0.70;0.70;;;21.80;99.90;;;;;;5015976;28;20476;-81
2022/05/21 02:50:08;;;;;;;0.70;0.70;;;21.70;99.90;;;;;;5015202;28;20991;-82
2022/05/21 02:52:37;;;;;;;0.80;0.80;;;21.80;99.90;;;;;;5011402;28;20446;-81
2022/05/21 02:55:07;;;;;;;0.70;0.70;;;21.80;99.90;;;;;;5015322;28;21014;-81
2022/05/21 02:57:36;;;;;;;0.77;0.77;;;21.70;99.90;;;;;;5016439;28;20471;-80
2022/05/21 03:00:06;;;;;;;0.80;0.80;;;21.70;99.90;;;;;;5020554;28;21000;-81
2022/05/21 03:02:34;;;;;;;0.93;0.80;;;21.60;99.90;;;;;;5020953;28;20457;-81
2022/05/21 03:05:06;;;;;;;0.97;0.90;;;21.60;99.90;;;;;;5018580;28;20464;-81
2022/05/21 03:07:38;;;;;;;4.90;0.93;;;21.60;99.90;;;;;;5010414;28;20476;-81
2022/05/21 03:10:21;;;;;;;1.43;0.77;;;21.50;99.90;;;;;;5014959;28;20453;-81
2022/05/21 03:12:55;;;;;;;3.70;0.70;;;21.50;99.90;;;;;;5013353;28;20449;-81
2022/05/21 03:15:27;;;;;;;0.77;0.73;;;21.50;99.90;;;;;;5012335;28;20461;-80
2022/05/21 03:17:55;;;;;;;1.10;0.90;;;21.40;99.90;;;;;;5020152;28;21352;-80
2022/05/21 03:20:25;;;;;;;1.20;1.03;;;21.40;99.90;;;;;;5019973;28;20465;-81
2022/05/21 03:22:53;;;;;;;0.97;0.90;;;21.40;99.90;;;;;;5016406;28;20460;-80
2022/05/21 03:25:23;;;;;;;2.00;1.90;;;21.30;99.90;;;;;;5016666;28;20831;-80
2022/05/21 03:27:51;;;;;;;1.53;0.90;;;21.30;99.90;;;;;;5015007;28;20584;-79
2022/05/21 03:30:22;;;;;;;1.00;1.00;;;21.30;99.90;;;;;;5014199;28;20467;-81
2022/05/21 03:32:51;;;;;;;1.57;1.03;;;21.20;99.90;;;;;;5017601;28;20492;-80
2022/05/21 03:35:20;;;;;;;1.27;0.90;;;21.20;99.90;;;;;;5014574;28;20460;-80
2022/05/21 03:37:51;;;;;;;1.20;1.10;;;21.20;99.90;;;;;;5012207;28;20492;-80
2022/05/21 03:40:24;;;;;;;1.10;1.00;;;21.20;99.90;;;;;;5014343;28;20460;-80
2022/05/21 03:42:52;;;;;;;1.17;1.07;;;21.20;99.90;;;;;;5015248;28;20464;-81
2022/05/21 03:45:21;;;;;;;1.40;1.30;;;21.10;99.90;;;;;;5015822;28;20460;-80
2022/05/21 03:47:51;;;;;;;1.17;1.07;;;21.10;99.90;;;;;;5015869;28;20491;-80
2022/05/21 03:50:22;;;;;;;1.33;0.90;;;21.00;99.90;;;;;;5010342;28;20496;-78
2022/05/21 03:52:51;;;;;;;2.90;0.97;;;21.00;99.90;;;;;;5018143;28;20482;-80
2022/05/21 03:55:20;;;;;;;1.33;1.23;;;20.90;99.90;;;;;;5022265;28;20574;-80
2022/05/21 03:57:48;;;;;;;1.20;1.00;;;20.90;99.90;;;;;;5016940;28;20575;-79
2022/05/21 04:00:18;;;;;;;2.80;1.20;;;20.90;99.90;;;;;;5019588;28;20460;-79
2022/05/21 04:02:47;;;;;;;0.90;0.90;;;20.80;99.90;;;;;;5021387;28;20449;-80
2022/05/21 04:05:16;;;;;;;1.10;1.00;;;20.80;99.90;;;;;;5018218;28;20461;-79
2022/05/21 04:07:45;;;;;;;2.70;1.10;;;20.80;99.90;;;;;;5021648;28;20471;-78
2022/05/21 04:10:17;;;;;;;1.20;1.00;;;20.80;99.90;;;;;;5020143;28;20460;-79
2022/05/21 04:12:45;;;;;;;1.00;1.00;;;20.70;99.90;;;;;;5016244;28;20480;-79
2022/05/21 04:15:14;;;;;;;0.97;0.93;;;20.80;99.90;;;;;;5026290;28;20456;-79
2022/05/21 04:17:42;;;;;;;1.43;1.20;;;20.80;99.90;;;;;;5012567;28;20461;-79
2022/05/21 04:20:18;;;;;;;1.20;1.10;;;20.70;99.90;;;;;;5013237;28;20457;-79
2022/05/21 04:22:46;;;;;;;1.10;1.00;;;20.80;99.90;;;;;;5011622;28;20461;-79
2022/05/21 04:25:17;;;;;;;1.20;1.10;;;20.60;99.90;;;;;;5021311;28;20452;-79
2022/05/21 04:27:45;;;;;;;1.77;1.10;;;20.50;99.90;;;;;;5016224;28;21027;-78
2022/05/21 04:30:17;;;;;;;1.07;1.00;;;20.50;99.90;;;;;;5018371;28;20531;-78
2022/05/21 04:32:46;;;;;;;1.33;0.97;;;20.60;99.90;;;;;;5021020;28;20579;-78
2022/05/21 04:35:16;;;;;;;1.30;1.20;;;20.50;99.90;;;;;;5011226;28;20459;-79
2022/05/21 04:37:44;;;;;;;1.30;1.20;;;20.50;99.90;;;;;;5018943;28;20547;-78
2022/05/21 04:40:17;;;;;;;1.90;1.40;;;20.50;99.90;;;;;;5017217;28;20547;-79
2022/05/21 04:42:46;;;;;;;1.10;1.00;;;20.40;99.90;;;;;;5021804;28;20452;-79
2022/05/21 04:45:16;;;;;;;1.17;1.10;;;20.40;99.90;;;;;;5020597;28;22015;-79
2022/05/21 04:47:44;;;;;;;1.23;1.10;;;20.40;99.90;;;;;;5016010;28;20500;-79
2022/05/21 04:50:13;;;;;;;1.30;1.20;;;20.30;99.90;;;;;;5020641;28;20456;-79
2022/05/21 04:52:42;;;;;;;1.13;1.03;;;20.30;99.90;;;;;;5021615;28;20499;-80
2022/05/21 04:55:11;;;;;;;1.43;0.90;;;20.30;99.90;;;;;;5016666;28;20461;-79
2022/05/21 04:57:41;;;;;;;1.00;0.83;;;20.40;99.90;;;;;;5015734;28;20476;-79
2022/05/21 05:00:10;;;;;;;1.20;1.00;;;20.40;99.90;;;;;;5013459;28;20867;-79
2022/05/21 05:02:38;;;;;;;1.20;1.10;;;20.40;99.90;;;;;;5019048;28;20444;-82
2022/05/21 05:05:08;;;;;;;2.10;0.90;;;20.30;99.90;;;;;;5015996;28;20475;-79
2022/05/21 05:07:38;;;;;;;1.20;1.10;;;20.30;99.90;;;;;;5017896;28;20480;-78
2022/05/21 05:10:07;;;;;;;1.50;1.10;;;20.30;99.90;;;;;;5016239;28;20865;-77
2022/05/21 05:12:36;;;;;;;1.50;1.10;;;20.40;99.90;;;;;;5030267;28;20558;-78
2022/05/21 05:15:07;;;;;;;1.40;1.20;;;20.40;99.90;;;;;;5028009;28;20463;-76
2022/05/21 05:17:35;;;;;;;1.20;1.20;;;20.40;99.90;;;;;;5028843;28;21222;-77
2022/05/21 05:20:04;;;;;;;1.60;1.40;;;20.40;99.90;;;;;;5030720;28;20456;-77
2022/05/21 05:22:33;;;;;;;1.33;1.23;;;20.40;99.90;;;;;;5030104;28;20785;-77
2022/05/21 05:25:04;;;;;;;2.43;1.00;;;20.40;99.90;;;;;;5029896;28;20476;-77
2022/05/21 05:27:33;;;;;;;1.30;1.00;;;20.50;99.90;;;;;;5033741;28;20472;-77
2022/05/21 05:30:01;;;;;;;1.43;1.07;;;20.50;99.90;;;;;;5029092;28;20464;-77
2022/05/21 05:32:32;;;;;;;1.10;1.10;;;20.50;99.90;;;;;;5022512;28;20504;-77
2022/05/21 05:35:01;;;;;;;1.13;0.93;;;20.60;99.90;;;;;;5014819;28;20496;-77
2022/05/21 05:37:29;;;;;;;1.10;1.00;;;20.60;99.90;;;;;;5007873;28;20857;-77
2022/05/21 05:39:58;;;;;;;0.90;0.80;;;20.60;99.90;;;;;;5016002;28;20191;-76
2022/05/21 05:42:26;;;;;;;1.90;0.90;;;20.60;99.90;;;;;;5016529;28;20469;-77
2022/05/21 05:44:55;;;;;;;0.90;0.90;;;20.60;99.90;;;;;;5022519;28;20506;-76
2022/05/21 05:47:24;;;;;;;0.90;0.90;;;20.70;99.90;;;;;;5023111;28;20538;-76
2022/05/21 05:49:53;;;;;;;1.70;0.90;;;20.70;99.90;;;;;;5016798;28;20484;-78
2022/05/21 05:52:21;;;;;;;0.80;0.67;;;20.70;99.90;;;;;;5014905;28;20492;-77
2022/05/21 05:54:50;;;;;;;1.00;0.90;;;20.70;99.90;;;;;;5019123;28;21305;-78
2022/05/21 05:57:18;;;;;;;1.00;1.00;;;20.80;99.90;;;;;;5011192;28;20541;-78
2022/05/21 05:59:48;;;;;;;1.30;0.80;;;20.80;99.90;;;;;;5018355;28;20467;-77
2022/05/21 06:05:07;;;;;;;1.40;0.87;;;20.90;99.90;;;;;;5013239;28;20554;-78
2022/05/21 06:07:41;;;;;;;0.90;0.87;;;20.90;99.90;;;;;;5019881;28;20479;-77
2022/05/21 06:10:11;;;;;;;1.20;0.80;;;20.90;99.90;;;;;;5022940;28;20582;-77
2022/05/21 06:12:39;;;;;;;1.40;0.70;;;21.00;99.90;;;;;;5026714;28;20476;-77
2022/05/21 06:15:09;;;;;;;0.67;0.67;;;21.10;99.90;;;;;;5028225;28;20463;-76
2022/05/21 06:17:37;;;;;;;1.47;0.80;;;21.10;99.90;;;;;;5016778;28;20470;-81
2022/05/21 06:20:11;;;;;;;1.53;0.90;;;21.10;99.90;;;;;;5018329;28;21304;-80
2022/05/21 06:22:40;;;;;;;1.30;1.20;;;21.10;99.90;;;;;;5016990;28;20452;-80
2022/05/21 06:25:10;;;;;;;1.97;1.20;;;21.20;99.90;;;;;;5014834;28;20463;-80
2022/05/21 06:27:38;;;;;;;2.10;0.97;;;21.20;99.90;;;;;;5020563;28;20465;-80
2022/05/21 06:30:07;;;;;;;0.90;0.90;;;21.20;99.90;;;;;;5023576;28;20478;-80
2022/05/21 06:32:36;;;;;;;3.53;1.10;;;21.20;99.90;;;;;;5018403;28;20465;-80
2022/05/21 06:35:08;;;;;;;1.17;0.63;;;21.20;99.60;;;;;;5026635;28;20452;-80
2022/05/21 06:37:37;;;;;;;0.70;0.70;;;21.20;98.50;;;;;;5024745;28;20478;-81
2022/05/21 06:40:06;;;;;;;0.70;0.70;;;21.30;98.60;;;;;;5021947;28;20452;-81
2022/05/21 06:42:35;;;;;;;1.07;0.80;;;21.40;98.80;;;;;;5025015;28;20445;-81
2022/05/21 06:45:05;;;;;;;0.70;0.70;;;21.50;99.90;;;;;;5023126;28;20475;-81
2022/05/21 06:47:33;;;;;;;1.17;0.87;;;21.70;99.90;;;;;;5035864;28;20470;-82
2022/05/21 06:50:02;;;;;;;2.30;0.83;;;21.90;99.90;;;;;;5026757;28;20455;-82
2022/05/21 06:52:32;;;;;;;2.50;1.50;;;22.10;99.90;;;;;;5027744;28;20947;-81
2022/05/21 06:55:09;;;;;;;1.10;1.00;;;22.20;99.90;;;;;;5017710;28;20460;-80
2022/05/21 06:57:37;;;;;;;0.90;0.90;;;22.40;99.90;;;;;;5009983;28;20516;-77
2022/05/21 07:00:07;;;;;;;0.73;0.70;;;22.50;99.90;;;;;;5023056;28;20455;-75
2022/05/21 07:02:35;;;;;;;2.20;0.90;;;22.50;99.90;;;;;;5020261;28;20459;-78
2022/05/21 07:07:52;;;;;;;1.40;0.90;;;22.70;99.90;;;;;;5015358;28;20503;-78
2022/05/21 07:10:22;;;;;;;1.27;0.93;;;22.80;99.90;;;;;;5017818;28;20456;-76
2022/05/21 07:12:51;;;;;;;1.03;0.80;;;22.80;99.90;;;;;;5018278;28;20480;-75
2022/05/21 07:15:20;;;;;;;0.80;0.80;;;22.80;99.90;;;;;;5026443;28;20454;-75
2022/05/21 07:17:48;;;;;;;0.60;0.60;;;22.80;99.90;;;;;;5020972;28;20949;-76
2022/05/21 07:20:19;;;;;;;0.60;0.60;;;22.80;99.90;;;;;;5022930;28;20449;-77
2022/05/21 07:22:49;;;;;;;1.53;0.70;;;22.80;99.90;;;;;;5029528;28;20458;-76
2022/05/21 07:25:26;;;;;;;0.70;0.70;;;22.70;99.10;;;;;;5028253;28;20555;-76
2022/05/21 07:27:58;;;;;;;0.73;0.73;;;22.70;99.70;;;;;;5017288;28;20934;-77
2022/05/21 07:30:27;;;;;;;1.53;1.03;;;22.70;99.90;;;;;;5019600;28;20952;-77
2022/05/21 07:32:56;;;;;;;0.70;0.70;;;22.70;99.80;;;;;;5031156;28;20479;-76
2022/05/21 07:35:25;;;;;;;0.60;0.60;;;22.70;98.70;;;;;;5025202;28;20464;-76
2022/05/21 07:37:54;;;;;;;0.50;0.50;;;22.70;97.70;;;;;;5020169;28;20475;-76
2022/05/21 07:40:25;;;;;;;0.70;0.70;;;22.70;97.50;;;;;;5014603;28;20960;-76
2022/05/21 07:42:54;;;;;;;1.17;0.90;;;22.60;96.50;;;;;;5027022;28;20995;-76
2022/05/21 07:45:23;;;;;;;0.50;0.50;;;22.70;98.10;;;;;;5027562;28;20456;-76
2022/05/21 07:47:52;;;;;;;1.07;0.57;;;22.70;97.60;;;;;;5020982;28;20497;-76
2022/05/21 07:50:22;;;;;;;1.27;0.80;;;22.70;97.70;;;;;;5014240;28;21023;-76
2022/05/21 07:52:51;;;;;;;0.77;0.77;;;22.80;97.80;;;;;;5016665;28;21100;-76
2022/05/21 07:55:19;;;;;;;0.50;0.50;;;22.80;98.60;;;;;;5024899;28;20483;-76
2022/05/21 07:57:49;;;;;;;1.00;0.60;;;22.80;98.40;;;;;;5018484;28;20873;-75
2022/05/21 08:00:18;;;;;;;0.60;0.60;;;22.80;97.50;;;;;;5016700;28;20454;-75
2022/05/21 08:02:47;;;;;;;0.90;0.50;;;22.90;97.80;;;;;;5017448;28;20471;-75
2022/05/21 08:05:15;;;;;;;0.50;0.50;;;23.00;97.50;;;;;;5017258;28;20459;-76
2022/05/21 08:07:49;;;;;;;1.90;1.43;;;23.00;98.50;;;;;;5019520;28;20861;-75
2022/05/21 08:10:17;;;;;;;2.63;0.60;;;23.00;99.90;;;;;;5027852;28;20479;-75
2022/05/21 08:12:46;;;;;;;0.50;0.50;;;23.00;97.20;;;;;;5028369;28;20459;-75
2022/05/21 08:15:15;;;;;;;0.80;0.50;;;23.10;97.50;;;;;;5025410;28;20818;-76
2022/05/21 08:17:43;;;;;;;0.80;0.60;;;23.10;98.20;;;;;;5024805;28;20467;-77
2022/05/21 08:20:13;;;;;;;0.93;0.93;;;23.20;99.50;;;;;;5025776;28;20455;-76
2022/05/21 08:28:15;;;;;;;0.50;0.50;;;23.30;98.10;;;;;;5017507;28;20488;-76
2022/05/21 08:30:48;;;;;;;1.33;0.50;;;23.40;99.90;;;;;;5030642;28;20451;-77
2022/05/21 08:33:18;;;;;;;0.97;0.40;;;23.40;97.40;;;;;;5021985;28;20465;-75
2022/05/21 08:35:46;;;;;;;0.50;0.50;;;23.40;97.10;;;;;;5025764;28;20445;-76
2022/05/21 08:38:16;;;;;;;0.40;0.40;;;23.40;97.40;;;;;;5013960;28;20486;-76
2022/05/21 08:40:48;;;;;;;0.53;0.53;;;23.50;96.70;;;;;;5023088;28;21076;-75
2022/05/21 08:43:21;;;;;;;0.67;0.50;;;23.50;96.40;;;;;;5031833;28;20440;-76
2022/05/21 08:46:04;;;;;;;0.50;0.50;;;23.60;96.40;;;;;;5030865;28;20943;-73
2022/05/21 08:48:33;;;;;;;0.50;0.50;;;23.60;97.90;;;;;;5028319;28;20468;-76
2022/05/21 08:51:09;;;;;;;0.50;0.50;;;23.60;97.40;;;;;;5033725;28;20456;-75
2022/05/21 08:53:47;;;;;;;0.57;0.50;;;23.60;97.00;;;;;;5025856;28;20451;-75
2022/05/21 08:56:15;;;;;;;0.50;0.50;;;23.60;97.10;;;;;;5025921;28;20459;-76
2022/05/21 08:58:48;;;;;;;1.20;0.53;;;23.60;98.10;;;;;;5027773;28;20460;-76
2022/05/21 09:01:21;;;;;;;0.53;0.50;;;23.70;96.90;;;;;;5030229;28;20460;-75
2022/05/21 09:03:52;;;;;;;0.53;0.53;;;23.70;96.90;;;;;;5027553;28;21267;-74
2022/05/21 09:06:37;;;;;;;0.53;0.50;;;23.70;96.60;;;;;;5030113;28;20456;-75
2022/05/21 09:09:15;;;;;;;0.50;0.50;;;23.80;98.10;;;;;;5028161;28;20467;-76
2022/05/21 09:11:49;;;;;;;0.47;0.47;;;23.80;96.90;;;;;;5037425;28;20509;-76
2022/05/21 09:14:27;;;;;;;0.60;0.50;;;23.80;96.90;;;;;;5028898;28;20480;-75
2022/05/21 09:16:56;;;;;;;0.50;0.40;;;23.80;96.30;;;;;;5020320;28;20488;-75
2022/05/21 09:19:26;;;;;;;0.57;0.50;;;23.60;94.60;;;;;;5015150;28;20479;-73
2022/05/21 09:22:00;;;;;;;0.50;0.50;;;23.70;95.00;;;;;;5023587;28;20465;-75
2022/05/21 09:24:37;;;;;;;0.53;0.53;;;23.70;94.30;;;;;;5026961;28;20450;-75
2022/05/21 09:27:21;;;;;;;1.20;0.60;;;23.80;93.90;;;;;;5010272;28;20886;-76
2022/05/21 09:29:51;;;;;;;0.70;0.50;;;23.90;95.40;;;;;;5013467;28;20577;-72
2022/05/21 09:32:23;;;;;;;1.60;0.60;;;24.00;96.70;;;;;;5025940;28;20486;-76
2022/05/21 09:35:04;;;;;;;0.50;0.40;;;24.10;96.70;;;;;;5026277;28;20462;-75
2022/05/21 09:37:32;;;;;;;0.60;0.60;;;24.00;96.60;;;;;;5019226;28;20228;-75
2022/05/21 09:40:01;;;;;;;1.07;0.50;;;24.00;96.20;;;;;;5023281;28;20975;-77
2022/05/21 09:45:27;;;;;;;1.80;1.00;;;24.00;94.90;;;;;;5026312;28;20575;-76
2022/05/21 09:48:16;;;;;;;1.80;0.53;;;23.90;93.60;;;;;;5014691;28;20491;-77
2022/05/21 09:50:47;;;;;;;0.40;0.40;;;24.00;93.60;;;;;;5019411;28;20453;-77
2022/05/21 09:53:31;;;;;;;0.57;0.40;;;24.00;95.00;;;;;;5026525;28;20464;-76
2022/05/21 09:56:03;;;;;;;0.70;0.70;;;24.00;93.80;;;;;;5021618;28;20474;-77
2022/05/21 09:58:34;;;;;;;2.40;0.67;;;24.10;94.80;;;;;;5029002;28;20484;-76
2022/05/21 10:01:04;;;;;;;0.40;0.40;;;24.10;93.10;;;;;;5018315;28;20548;-76
2022/05/21 10:03:46;;;;;;;0.50;0.50;;;24.20;94.30;;;;;;5009322;28;20993;-76
2022/05/21 10:06:29;;;;;;;0.40;0.40;;;24.30;93.80;;;;;;5020860;28;20454;-76
2022/05/21 10:11:57;;;;;;;1.83;0.40;;;24.40;94.80;;;;;;5014156;28;20452;-75
2022/05/21 10:14:31;;;;;;;0.97;0.50;;;24.40;93.50;;;;;;5016741;28;21295;-76
2022/05/21 10:17:02;;;;;;;0.60;0.50;;;24.30;93.70;;;;;;5012428;28;20477;-75
2022/05/21 10:19:38;;;;;;;0.70;0.50;;;24.40;96.30;;;;;;5013020;28;20453;-79
2022/05/21 10:22:23;;;;;;;0.63;0.50;;;24.50;96.50;;;;;;5020632;28;21037;-77
2022/05/21 10:25:01;;;;;;;1.00;0.60;;;24.60;96.50;;;;;;5013954;28;20453;-76
2022/05/21 10:28:02;;;;;;;1.30;0.50;;;24.60;97.10;;;;;;5018764;28;20486;-75
2022/05/21 10:30:41;;;;;;;0.63;0.60;;;24.60;97.70;;;;;;5010009;28;20448;-77
2022/05/21 10:33:29;;;;;;;0.40;0.40;;;24.60;97.70;;;;;;5020029;28;20531;-77
2022/05/21 10:36:13;;;;;;;0.87;0.70;;;24.70;98.20;;;;;;5018092;28;20917;-76
2022/05/21 10:38:57;;;;;;;0.60;0.60;;;24.70;97.60;;;;;;5018999;28;20536;-77
2022/05/21 10:41:42;;;;;;;0.93;0.70;;;24.70;99.10;;;;;;5023142;28;20460;-76
2022/05/21 10:44:21;;;;;;;0.60;0.60;;;24.80;99.90;;;;;;5019366;28;20841;-76
2022/05/21 10:46:56;;;;;;;0.50;0.50;;;24.80;99.30;;;;;;5022085;28;20467;-74
2022/05/21 10:49:44;;;;;;;2.35;0.88;;;24.90;99.60;;;;;;5018163;28;20454;-76
2022/05/21 10:52:19;;;;;;;0.70;0.70;;;24.90;98.00;;;;;;5021086;28;20692;-77
2022/05/21 10:55:01;;;;;;;0.73;0.50;;;24.90;99.40;;;;;;5020884;28;20487;-76
2022/05/21 10:57:48;;;;;;;1.00;0.67;;;25.00;99.50;;;;;;5029401;28;20479;-75
2022/05/21 11:00:23;;;;;;;0.60;0.40;;;25.00;99.90;;;;;;5021633;28;20452;-77
2022/05/21 11:03:21;;;;;;;0.50;0.50;;;25.00;99.90;;;;;;5021954;28;20683;-76
2022/05/21 11:06:09;;;;;;;0.60;0.50;;;25.10;99.90;;;;;;5011212;28;20457;-74
2022/05/21 11:08:47;;;;;;;0.70;0.60;;;25.10;99.90;;;;;;5012912;28;20483;-77
2022/05/21 11:11:30;;;;;;;0.50;0.50;;;25.20;99.90;;;;;;5018159;28;20851;-76
2022/05/21 11:14:09;;;;;;;0.60;0.60;;;25.10;98.80;;;;;;5025877;28;20471;-77
2022/05/21 11:16:42;;;;;;;0.77;0.60;;;25.20;99.80;;;;;;5021597;28;20487;-76
2022/05/21 11:19:16;;;;;;;0.57;0.50;;;25.20;99.90;;;;;;5023567;28;21006;-76
2022/05/21 11:21:50;;;;;;;0.60;0.57;;;25.20;99.20;;;;;;5020233;28;21132;-75
2022/05/21 11:24:27;;;;;;;1.63;0.90;;;25.20;99.90;;;;;;5020725;28;20457;-77
2022/05/21 11:27:00;;;;;;;0.50;0.50;;;25.20;98.70;;;;;;5023780;28;21106;-78
2022/05/21 11:29:37;;;;;;;1.33;0.63;;;25.10;97.40;;;;;;5018455;28;20472;-75
2022/05/21 11:37:53;;;;;;;0.80;0.60;;;25.30;99.90;;;;;;5029968;28;20840;-73
2022/05/21 11:41:24;;;;;;;1.60;0.60;;;25.30;99.90;;;;;;5028044;28;20449;-79
2022/05/21 11:46:57;;;;;;;2.20;0.60;;;25.40;99.90;;;;;;5024305;28;20473;-78
2022/05/21 11:49:36;;;;;;;0.80;0.60;;;25.40;99.90;;;;;;5018713;28;20452;-77
2022/05/21 11:52:42;;;;;;;1.23;0.50;;;25.40;99.70;;;;;;5016033;28;20448;-78
2022/05/21 11:55:18;;;;;;;0.57;0.53;;;25.30;98.70;;;;;;5014895;28;20467;-78
2022/05/21 11:57:53;;;;;;;0.60;0.60;;;25.40;99.40;;;;;;5019201;28;20526;-74
2022/05/21 12:00:58;;;;;;;1.77;0.70;;;25.40;98.50;;;;;;5014086;28;20440;-77
2022/05/21 12:03:53;;;;;;;0.90;0.70;;;25.40;99.70;;;;;;5023947;28;20468;-77
2022/05/21 12:06:31;;;;;;;0.60;0.60;;;25.40;98.20;;;;;;5021375;28;20456;-78
2022/05/21 12:09:21;;;;;;;1.80;0.70;;;25.50;99.90;;;;;;5026050;28;21059;-79
2022/05/21 12:11:50;;;;;;;2.63;0.70;;;25.50;99.80;;;;;;5020149;28;20198;-76
2022/05/21 12:14:28;;;;;;;1.67;0.60;;;25.60;99.90;;;;;;5016151;28;20453;-75
2022/05/21 12:17:00;;;;;;;0.50;0.50;;;25.60;99.90;;;;;;5019161;28;20480;-81
2022/05/21 12:20:05;;;;;;;1.05;0.77;;;25.60;99.90;;;;;;5014868;28;20457;-78
2022/05/21 12:22:36;;;;;;;1.13;0.60;;;25.80;99.90;;;;;;5020776;28;20545;-79
2022/05/21 12:25:05;;;;;;;0.60;0.50;;;25.80;99.90;;;;;;5027438;28;20917;-77
2022/05/21 12:27:47;;;;;;;2.15;0.80;;;25.80;99.90;;;;;;5032133;28;20461;-80
2022/05/21 12:30:24;;;;;;;3.33;1.00;;;25.90;99.90;;;;;;5022153;28;21001;-79
2022/05/21 12:32:53;;;;;;;2.00;1.20;;;25.90;99.90;;;;;;5026001;28;20281;-79
2022/05/21 12:35:45;;;;;;;1.20;0.90;;;25.90;99.90;;;;;;5028087;28;20452;-79
2022/05/21 12:38:21;;;;;;;2.40;0.70;;;25.90;99.90;;;;;;5020405;28;20476;-79
2022/05/21 12:40:59;;;;;;;0.90;0.70;;;25.80;99.90;;;;;;5028600;28;20973;-77
2022/05/21 12:43:28;;;;;;;0.90;0.60;;;25.90;99.90;;;;;;5034071;28;20460;-80
2022/05/21 12:45:58;;;;;;;1.10;0.70;;;25.90;99.90;;;;;;5028626;28;21217;-79
2022/05/21 12:48:32;;;;;;;0.60;0.60;;;25.90;99.90;;;;;;5026520;28;20514;-80
2022/05/21 12:51:02;;;;;;;0.70;0.60;;;26.00;99.90;;;;;;5035410;28;20471;-80
2022/05/21 12:53:51;;;;;;;0.70;0.70;;;26.00;99.90;;;;;;5033908;28;20471;-78
2022/05/21 12:56:25;;;;;;;0.77;0.77;;;26.00;99.90;;;;;;5030572;28;20992;-79
2022/05/21 12:59:03;;;;;;;0.80;0.60;;;25.90;98.80;;;;;;5028335;28;20444;-80
2022/05/21 13:01:34;;;;;;;0.80;0.60;;;25.90;99.70;;;;;;5029764;28;20447;-80
2022/05/21 13:04:03;;;;;;;0.70;0.60;;;25.90;99.90;;;;;;5030622;28;20456;-79
2022/05/21 13:06:33;;;;;;;1.13;0.57;;;25.90;99.90;;;;;;5030961;28;20457;-79
2022/05/21 13:09:04;;;;;;;0.70;0.60;;;25.90;99.90;;;;;;5031316;28;20460;-80
2022/05/21 13:11:41;;;;;;;0.50;0.50;;;25.90;99.90;;;;;;5028537;28;20452;-79
2022/05/21 13:14:21;;;;;;;1.13;0.50;;;26.00;99.90;;;;;;5031200;28;20459;-79
2022/05/21 13:16:53;;;;;;;0.83;0.60;;;26.00;99.90;;;;;;5034852;28;20496;-79
2022/05/21 13:19:40;;;;;;;0.60;0.50;;;26.00;99.30;;;;;;5030885;28;20452;-80
2022/05/21 13:22:16;;;;;;;0.60;0.60;;;25.90;98.40;;;;;;5026461;28;20463;-80
2022/05/21 13:24:53;;;;;;;0.73;0.63;;;26.00;98.70;;;;;;5030894;28;20456;-79
2022/05/21 13:27:24;;;;;;;1.63;0.60;;;26.20;99.60;;;;;;5030697;28;20468;-79
2022/05/21 13:29:54;;;;;;;1.43;0.70;;;26.00;99.40;;;;;;5031427;28;20986;-79
2022/05/21 13:32:26;;;;;;;0.60;0.60;;;26.10;98.50;;;;;;5032155;28;20445;-75
2022/05/21 13:34:56;;;;;;;1.67;0.40;;;26.10;99.30;;;;;;5029164;28;21004;-80
2022/05/21 13:37:31;;;;;;;1.43;0.67;;;26.10;98.20;;;;;;5019903;28;20492;-80
2022/05/21 13:40:05;;;;;;;0.90;0.70;;;26.10;96.80;;;;;;5028143;28;21277;-80
2022/05/21 13:42:36;;;;;;;0.50;0.50;;;26.10;97.10;;;;;;5025187;28;20487;-80
2022/05/21 13:45:09;;;;;;;0.60;0.60;;;26.10;97.40;;;;;;5029785;28;20464;-79
2022/05/21 13:47:41;;;;;;;0.50;0.50;;;26.10;97.70;;;;;;5024994;28;21008;-79
2022/05/21 13:50:11;;;;;;;0.63;0.63;;;26.20;98.90;;;;;;5015528;28;20457;-80